createdAt,value
2023-05-05T00:00:43.321Z,100247.65
2023-05-05T00:01:45.929Z,100245.85
2023-05-05T00:02:48.691Z,100242.30
2023-05-05T00:03:51.163Z,100242.30
2023-05-05T00:04:53.518Z,100244.31
2023-05-05T00:05:56.192Z,100246.11
2023-05-05T00:06:58.836Z,100238.43
2023-05-05T00:08:01.108Z,100238.43
2023-05-05T00:09:03.259Z,100235.70
2023-05-05T00:10:06.643Z,100237.50
2023-05-05T00:11:09.096Z,100238.65
2023-05-05T00:12:11.493Z,100235.86
2023-05-05T00:13:14.432Z,100223.61
2023-05-05T00:14:17.052Z,100230.51
2023-05-05T00:15:19.290Z,100227.07
2023-05-05T00:16:22.750Z,100232.89
2023-05-05T00:17:25.439Z,100228.58
2023-05-05T00:18:28.948Z,100231.25
2023-05-05T00:19:31.832Z,100234.42
2023-05-05T00:20:36.654Z,100234.42
2023-05-05T00:21:39.531Z,100238.60
2023-05-05T00:22:41.954Z,100227.47
2023-05-05T00:23:44.202Z,100231.54
2023-05-05T00:24:46.721Z,100230.38
2023-05-05T00:25:48.856Z,100232.72
2023-05-05T00:26:51.225Z,100248.62
2023-05-05T00:27:53.541Z,100244.83
2023-05-05T00:28:56.391Z,100243.87
2023-05-05T00:29:59.057Z,100250.64
2023-05-05T00:31:01.817Z,100247.27
2023-05-05T00:32:04.596Z,100246.41
2023-05-05T00:33:07.167Z,100250.77
2023-05-05T00:34:09.488Z,100238.65
2023-05-05T00:35:12.294Z,100246.33
2023-05-05T00:36:14.789Z,100246.33
2023-05-05T00:37:17.435Z,100236.77
2023-05-05T00:38:21.061Z,100241.77
2023-05-05T00:39:23.677Z,100242.83
2023-05-05T00:40:26.326Z,100243.66
2023-05-05T00:41:28.718Z,100242.61
2023-05-05T00:42:47.190Z,100244.70
2023-05-05T00:43:49.573Z,100252.12
2023-05-05T00:44:52.499Z,100255.59
2023-05-05T00:46:01.465Z,100255.52
2023-05-05T00:47:04.388Z,100254.63
2023-05-05T00:48:06.845Z,100257.03
2023-05-05T00:49:09.933Z,100262.23
2023-05-05T00:50:17.064Z,100260.81
2023-05-05T00:51:21.002Z,100260.81
2023-05-05T00:52:23.809Z,100266.75
2023-05-05T00:53:27.789Z,100260.08
2023-05-05T00:54:30.267Z,100259.53
2023-05-05T00:55:34.223Z,100259.59
2023-05-05T00:56:36.889Z,100262.38
2023-05-05T00:57:39.381Z,100265.69
2023-05-05T00:58:42.685Z,100256.93
2023-05-05T00:59:46.452Z,100263.50
2023-05-05T01:00:49.918Z,100263.41
2023-05-05T01:01:52.237Z,100260.95
2023-05-05T01:02:54.737Z,100256.34
2023-05-05T01:03:57.440Z,100251.14
2023-05-05T01:04:59.785Z,100252.25
2023-05-05T01:06:17.818Z,100255.36
2023-05-05T01:07:23.718Z,100259.53
2023-05-05T01:08:35.142Z,100256.25
2023-05-05T01:10:14.948Z,100267.33
2023-05-05T01:11:08.034Z,100255.66
2023-05-05T01:12:13.972Z,100254.27
2023-05-05T01:13:42.561Z,100260.27
2023-05-05T01:14:51.473Z,100250.72
2023-05-05T01:16:28.158Z,100259.78
2023-05-05T01:17:40.193Z,100256.91
2023-05-05T01:19:16.620Z,100250.77
2023-05-05T01:20:47.253Z,100253.20
2023-05-05T01:21:53.130Z,100255.53
2023-05-05T01:22:59.030Z,100256.62
2023-05-05T01:24:21.459Z,100247.39
2023-05-05T01:25:45.845Z,100250.22
2023-05-05T01:26:51.945Z,100268.61
2023-05-05T01:28:07.784Z,100254.27
2023-05-05T01:29:46.365Z,100255.28
2023-05-05T01:30:58.532Z,100255.08
2023-05-05T01:32:05.827Z,100256.64
2023-05-05T01:33:12.731Z,100255.91
2023-05-05T01:34:18.734Z,100251.73
2023-05-05T01:35:24.856Z,100257.94
2023-05-05T01:36:30.959Z,100251.79
2023-05-05T01:37:39.649Z,100249.97
2023-05-05T01:38:45.577Z,100251.59
2023-05-05T01:39:51.466Z,100247.14
2023-05-05T01:41:03.059Z,100258.16
2023-05-05T01:42:08.991Z,100250.43
2023-05-05T01:43:14.712Z,100251.98
2023-05-05T01:44:19.360Z,100254.79
2023-05-05T01:45:25.394Z,100255.83
2023-05-05T01:46:29.751Z,100250.55
2023-05-05T01:47:32.120Z,100248.78
2023-05-05T01:48:36.407Z,100247.14
2023-05-05T01:49:40.373Z,100240.33
2023-05-05T01:50:46.102Z,100246.45
2023-05-05T01:51:49.861Z,100249.34
2023-05-05T01:52:53.619Z,100246.94
2023-05-05T01:54:01.025Z,100257.72
2023-05-05T01:55:05.887Z,100246.24
2023-05-05T01:56:10.191Z,100242.98
2023-05-05T01:57:15.951Z,100254.25
2023-05-05T01:58:21.682Z,100256.96
2023-05-05T01:59:26.013Z,100254.64
2023-05-05T02:00:29.972Z,100249.16
2023-05-05T02:01:35.490Z,100251.67
2023-05-05T02:02:40.719Z,100253.40
2023-05-05T02:03:47.654Z,100252.30
2023-05-05T02:04:52.598Z,100249.45
2023-05-05T02:05:57.052Z,100253.55
2023-05-05T02:07:02.779Z,100255.64
2023-05-05T02:08:06.378Z,100256.53
2023-05-05T02:09:12.440Z,100261.05
2023-05-05T02:10:16.235Z,100260.10
2023-05-05T02:11:20.928Z,100251.34
2023-05-05T02:12:23.311Z,100257.37
2023-05-05T02:13:28.875Z,100253.40
2023-05-05T02:14:32.608Z,100252.62
2023-05-05T02:15:37.171Z,100257.83
2023-05-05T02:16:41.670Z,100257.80
2023-05-05T02:17:45.966Z,100262.88
2023-05-05T02:18:50.095Z,100261.10
2023-05-05T02:19:54.391Z,100259.83
2023-05-05T02:20:56.992Z,100261.66
2023-05-05T02:21:59.608Z,100258.88
2023-05-05T02:23:04.451Z,100262.29
2023-05-05T02:24:08.346Z,100261.53
2023-05-05T02:25:10.858Z,100267.37
2023-05-05T02:26:16.197Z,100260.34
2023-05-05T02:27:21.673Z,100261.30
2023-05-05T02:28:56.795Z,100264.83
2023-05-05T02:30:09.121Z,100265.59
2023-05-05T02:31:13.884Z,100259.53
2023-05-05T02:32:41.126Z,100261.34
2023-05-05T02:33:47.026Z,100254.20
2023-05-05T02:34:51.472Z,100256.80
2023-05-05T02:35:57.621Z,100268.37
2023-05-05T02:37:04.246Z,100272.61
2023-05-05T02:38:12.857Z,100262.55
2023-05-05T02:39:22.101Z,100264.25
2023-05-05T02:40:27.965Z,100267.69
2023-05-05T02:41:33.127Z,100264.14
2023-05-05T02:42:40.910Z,100262.29
2023-05-05T02:43:48.344Z,100257.10
2023-05-05T02:44:54.567Z,100259.95
2023-05-05T02:45:57.815Z,100269.45
2023-05-05T02:47:06.301Z,100258.95
2023-05-05T02:48:12.171Z,100260.92
2023-05-05T02:49:15.993Z,100252.23
2023-05-05T02:50:18.845Z,100261.61
2023-05-05T02:51:23.019Z,100258.70
2023-05-05T02:52:25.417Z,100253.24
2023-05-05T02:53:29.312Z,100250.59
2023-05-05T02:54:32.940Z,100246.05
2023-05-05T02:55:48.219Z,100250.45
2023-05-05T02:56:50.887Z,100242.70
2023-05-05T02:58:06.024Z,100244.51
2023-05-05T02:59:17.404Z,100242.23
2023-05-05T03:00:24.493Z,100242.42
2023-05-05T03:01:30.639Z,100244.91
2023-05-05T03:02:41.457Z,100237.94
2023-05-05T03:03:48.515Z,100244.02
2023-05-05T03:05:00.979Z,100246.42
2023-05-05T03:06:21.714Z,100239.83
2023-05-05T03:07:40.371Z,100249.02
2023-05-05T03:08:56.456Z,100240.27
2023-05-05T03:10:09.137Z,100244.72
2023-05-05T03:12:38.010Z,100244.18
2023-05-05T03:13:43.779Z,100244.64
2023-05-05T03:14:48.080Z,100252.48
2023-05-05T03:15:52.872Z,100256.91
2023-05-05T03:16:58.024Z,100254.53
2023-05-05T03:18:02.204Z,100255.23
2023-05-05T03:19:08.163Z,100259.53
2023-05-05T03:20:13.342Z,100259.77
2023-05-05T03:21:17.696Z,100263.88
2023-05-05T03:22:21.759Z,100256.91
2023-05-05T03:23:25.431Z,100263.62
2023-05-05T03:24:29.575Z,100262.62
2023-05-05T03:25:44.375Z,100265.30
2023-05-05T03:26:49.733Z,100261.03
2023-05-05T03:27:54.026Z,100266.16
2023-05-05T03:28:56.876Z,100268.64
2023-05-05T03:30:04.667Z,100257.94
2023-05-05T03:31:07.646Z,100270.78
2023-05-05T03:32:11.445Z,100266.23
2023-05-05T03:33:15.526Z,100275.78
2023-05-05T03:34:18.292Z,100273.08
2023-05-05T03:35:22.470Z,100265.30
2023-05-05T03:36:28.602Z,100265.30
2023-05-05T03:37:31.837Z,100268.89
2023-05-05T03:38:34.521Z,100269.78
2023-05-05T03:39:37.391Z,100271.23
2023-05-05T03:40:44.685Z,100264.40
2023-05-05T03:41:45.703Z,100268.63
2023-05-05T03:42:48.641Z,100271.16
2023-05-05T03:43:51.046Z,100268.63
2023-05-05T03:44:54.676Z,100267.56
2023-05-05T03:45:57.332Z,100266.61
2023-05-05T03:46:59.949Z,100269.33
2023-05-05T03:48:04.247Z,100263.13
2023-05-05T03:49:08.676Z,100271.73
2023-05-05T03:50:13.010Z,100271.64
2023-05-05T03:51:16.381Z,100267.16
2023-05-05T03:52:19.676Z,100267.16
2023-05-05T03:53:22.610Z,100274.37
2023-05-05T03:54:25.655Z,100266.53
2023-05-05T03:55:28.494Z,100269.08
2023-05-05T03:56:30.936Z,100263.55
2023-05-05T03:57:33.850Z,100264.36
2023-05-05T03:58:36.344Z,100260.75
2023-05-05T03:59:39.839Z,100264.08
2023-05-05T04:00:43.211Z,100270.19
2023-05-05T04:01:46.052Z,100270.11
2023-05-05T04:02:48.874Z,100260.47
2023-05-05T04:03:52.058Z,100279.34
2023-05-05T04:04:56.251Z,100277.44
2023-05-05T04:05:58.744Z,100273.45
2023-05-05T04:07:01.144Z,100291.72
2023-05-05T04:08:04.287Z,100286.70
2023-05-05T04:09:06.635Z,100286.62
2023-05-05T04:10:09.980Z,100286.68
2023-05-05T04:11:12.338Z,100292.68
2023-05-05T04:12:14.857Z,100287.38
2023-05-05T04:13:17.532Z,100280.41
2023-05-05T04:14:20.533Z,100287.24
2023-05-05T04:15:22.885Z,100284.00
2023-05-05T04:16:25.826Z,100283.89
2023-05-05T04:17:28.810Z,100282.95
2023-05-05T04:18:31.316Z,100291.47
2023-05-05T04:19:33.946Z,100280.08
2023-05-05T04:20:39.283Z,100289.65
2023-05-05T04:21:41.783Z,100286.48
2023-05-05T04:22:46.391Z,100294.38
2023-05-05T04:23:49.263Z,100287.86
2023-05-05T04:24:52.027Z,100292.95
2023-05-05T04:25:54.289Z,100281.59
2023-05-05T04:26:57.122Z,100278.70
2023-05-05T04:28:01.019Z,100273.18
2023-05-05T04:29:03.917Z,100272.34
2023-05-05T04:30:09.178Z,100268.44
2023-05-05T04:31:12.627Z,100266.45
2023-05-05T04:32:16.346Z,100262.66
2023-05-05T04:33:19.778Z,100264.97
2023-05-05T04:34:22.813Z,100271.88
2023-05-05T04:35:25.475Z,100267.57
2023-05-05T04:36:28.055Z,100272.56
2023-05-05T04:37:30.256Z,100270.66
2023-05-05T04:38:34.981Z,100276.61
2023-05-05T04:39:37.830Z,100280.44
2023-05-05T04:40:40.839Z,100291.64
2023-05-05T04:41:44.064Z,100301.14
2023-05-05T04:42:46.836Z,100294.44
2023-05-05T04:43:49.233Z,100305.12
2023-05-05T04:44:52.070Z,100308.72
2023-05-05T04:45:55.300Z,100301.33
2023-05-05T04:47:03.548Z,100304.00
2023-05-05T04:48:05.953Z,100305.57
2023-05-05T04:49:08.776Z,100298.62
2023-05-05T04:50:11.638Z,100302.83
2023-05-05T04:51:14.879Z,100304.36
2023-05-05T04:52:17.391Z,100307.86
2023-05-05T04:53:20.411Z,100303.81
2023-05-05T04:54:23.173Z,100300.31
2023-05-05T04:55:26.365Z,100310.43
2023-05-05T04:56:31.432Z,100316.23
2023-05-05T04:57:33.667Z,100313.32
2023-05-05T04:58:36.408Z,100319.38
2023-05-05T04:59:39.060Z,100310.84
2023-05-05T05:00:41.518Z,100314.39
2023-05-05T05:01:45.490Z,100313.72
2023-05-05T05:02:49.129Z,100309.56
2023-05-05T05:03:52.670Z,100312.71
2023-05-05T05:04:55.257Z,100309.83
2023-05-05T05:05:57.934Z,100307.17
2023-05-05T05:07:01.048Z,100301.08
2023-05-05T05:08:03.836Z,100309.54
2023-05-05T05:09:05.948Z,100306.34
2023-05-05T05:10:09.965Z,100314.62
2023-05-05T05:11:12.813Z,100309.83
2023-05-05T05:12:15.706Z,100308.81
2023-05-05T05:13:20.533Z,100308.81
2023-05-05T05:14:23.840Z,100315.28
2023-05-05T05:15:26.515Z,100308.13
2023-05-05T05:16:30.739Z,100309.22
2023-05-05T05:17:33.321Z,100316.92
2023-05-05T05:18:36.198Z,100312.28
2023-05-05T05:19:38.686Z,100314.53
2023-05-05T05:20:41.022Z,100315.28
2023-05-05T05:21:44.463Z,100321.97
2023-05-05T05:22:47.233Z,100314.02
2023-05-05T05:23:52.561Z,100315.07
2023-05-05T05:24:54.909Z,100320.41
2023-05-05T05:25:58.005Z,100323.02
2023-05-05T05:27:03.225Z,100317.81
2023-05-05T05:28:10.666Z,100314.20
2023-05-05T05:29:12.369Z,100317.19
2023-05-05T05:30:16.707Z,100323.97
2023-05-05T05:31:19.507Z,100322.95
2023-05-05T05:32:22.186Z,100320.20
2023-05-05T05:33:25.893Z,100324.30
2023-05-05T05:34:29.358Z,100323.05
2023-05-05T05:35:32.533Z,100318.68
2023-05-05T05:36:36.888Z,100325.13
2023-05-05T05:37:46.712Z,100329.64
2023-05-05T05:38:49.668Z,100324.28
2023-05-05T05:39:52.360Z,100328.30
2023-05-05T05:40:55.218Z,100328.58
2023-05-05T05:41:59.109Z,100323.71
2023-05-05T05:43:02.527Z,100318.00
2023-05-05T05:44:05.010Z,100321.61
2023-05-05T05:45:08.834Z,100329.19
2023-05-05T05:46:11.961Z,100328.98
2023-05-05T05:47:15.166Z,100324.67
2023-05-05T05:48:17.990Z,100320.61
2023-05-05T05:49:20.229Z,100327.27
2023-05-05T05:50:23.953Z,100322.39
2023-05-05T05:51:28.286Z,100324.50
2023-05-05T05:52:30.880Z,100325.03
2023-05-05T05:53:33.493Z,100325.03
2023-05-05T05:54:35.694Z,100329.27
2023-05-05T05:55:38.699Z,100326.90
2023-05-05T05:56:41.234Z,100329.09
2023-05-05T05:57:44.918Z,100336.17
2023-05-05T05:58:48.604Z,100332.56
2023-05-05T05:59:51.625Z,100332.11
2023-05-05T06:00:54.216Z,100337.08
2023-05-05T06:01:56.639Z,100326.00
2023-05-05T06:02:59.069Z,100330.41
2023-05-05T06:04:03.626Z,100326.38
2023-05-05T06:05:07.024Z,100323.24
2023-05-05T06:06:10.914Z,100337.92
2023-05-05T06:07:13.848Z,100328.08
2023-05-05T06:08:16.455Z,100333.05
2023-05-05T06:09:21.852Z,100331.12
2023-05-05T06:10:30.324Z,100329.70
2023-05-05T06:11:29.279Z,100333.40
2023-05-05T06:12:33.691Z,100341.81
2023-05-05T06:13:36.573Z,100341.08
2023-05-05T06:14:39.897Z,100335.55
2023-05-05T06:15:43.641Z,100334.75
2023-05-05T06:16:47.765Z,100337.86
2023-05-05T06:17:52.003Z,100331.81
2023-05-05T06:18:54.838Z,100329.78
2023-05-05T06:19:57.042Z,100327.22
2023-05-05T06:21:00.203Z,100332.66
2023-05-05T06:22:03.081Z,100334.19
2023-05-05T06:23:05.932Z,100331.14
2023-05-05T06:24:10.254Z,100330.72
2023-05-05T06:25:13.080Z,100332.91
2023-05-05T06:26:18.231Z,100323.21
2023-05-05T06:27:21.233Z,100329.59
2023-05-05T06:28:24.295Z,100326.30
2023-05-05T06:29:28.711Z,100331.61
2023-05-05T06:30:31.439Z,100324.59
2023-05-05T06:31:33.789Z,100329.80
2023-05-05T06:32:36.962Z,100327.41
2023-05-05T06:33:39.082Z,100318.98
2023-05-05T06:34:44.266Z,100330.62
2023-05-05T06:35:47.245Z,100324.50
2023-05-05T06:36:50.228Z,100324.12
2023-05-05T06:37:52.636Z,100322.80
2023-05-05T06:38:54.884Z,100320.52
2023-05-05T06:39:57.326Z,100321.77
2023-05-05T06:41:01.066Z,100320.00
2023-05-05T06:42:03.497Z,100329.01
2023-05-05T06:43:06.811Z,100326.55
2023-05-05T06:44:11.110Z,100326.03
2023-05-05T06:45:13.765Z,100324.70
2023-05-05T06:46:16.231Z,100319.48
2023-05-05T06:47:18.559Z,100319.48
2023-05-05T06:48:21.549Z,100323.00
2023-05-05T06:49:23.714Z,100325.75
2023-05-05T06:50:27.102Z,100328.36
2023-05-05T06:51:30.907Z,100321.33
2023-05-05T06:52:33.474Z,100331.22
2023-05-05T06:53:35.753Z,100321.44
2023-05-05T06:54:38.229Z,100325.56
2023-05-05T06:55:44.374Z,100332.52
2023-05-05T06:56:47.441Z,100327.02
2023-05-05T06:57:50.170Z,100331.10
2023-05-05T06:58:53.340Z,100324.45
2023-05-05T06:59:55.948Z,100329.48
2023-05-05T07:00:59.863Z,100328.36
2023-05-05T07:02:02.500Z,100329.16
2023-05-05T07:03:05.332Z,100323.00
2023-05-05T07:04:08.687Z,100327.95
2023-05-05T07:05:11.197Z,100327.84
2023-05-05T07:06:13.638Z,100329.06
2023-05-05T07:07:16.284Z,100329.45
2023-05-05T07:08:19.791Z,100328.02
2023-05-05T07:09:22.321Z,100329.86
2023-05-05T07:10:25.705Z,100338.06
2023-05-05T07:11:28.565Z,100330.95
2023-05-05T07:12:30.977Z,100331.78
2023-05-05T07:13:33.680Z,100335.97
2023-05-05T07:14:35.678Z,100332.82
2023-05-05T07:15:42.847Z,100337.25
2023-05-05T07:16:45.845Z,100330.75
2023-05-05T07:17:48.832Z,100340.09
2023-05-05T07:18:51.371Z,100338.95
2023-05-05T07:19:54.897Z,100340.92
2023-05-05T07:20:57.424Z,100344.17
2023-05-05T07:21:59.769Z,100343.14
2023-05-05T07:23:02.276Z,100336.73
2023-05-05T07:24:05.345Z,100335.66
2023-05-05T07:25:09.074Z,100331.36
2023-05-05T07:26:12.221Z,100336.30
2023-05-05T07:27:15.197Z,100333.06
2023-05-05T07:28:17.558Z,100332.94
2023-05-05T07:29:20.003Z,100340.77
2023-05-05T07:30:24.797Z,100340.33
2023-05-05T07:31:29.356Z,100341.63
2023-05-05T07:32:31.866Z,100343.04
2023-05-05T07:33:34.380Z,100335.67
2023-05-05T07:34:37.462Z,100329.41
2023-05-05T07:35:40.183Z,100335.59
2023-05-05T07:36:44.174Z,100334.90
2023-05-05T07:37:47.445Z,100330.78
2023-05-05T07:38:49.827Z,100331.38
2023-05-05T07:39:53.885Z,100326.92
2023-05-05T07:40:56.539Z,100320.94
2023-05-05T07:41:59.444Z,100320.94
2023-05-05T07:43:01.915Z,100322.19
2023-05-05T07:44:05.376Z,100321.41
2023-05-05T07:45:08.478Z,100313.81
2023-05-05T07:46:10.913Z,100318.82
2023-05-05T07:47:13.389Z,100315.73
2023-05-05T07:48:15.980Z,100321.97
2023-05-05T07:49:19.528Z,100324.79
2023-05-05T07:50:22.587Z,100320.42
2023-05-05T07:51:26.013Z,100316.56
2023-05-05T07:52:44.329Z,100330.34
2023-05-05T07:53:33.081Z,100322.39
2023-05-05T07:54:35.712Z,100324.28
2023-05-05T07:55:38.192Z,100316.27
2023-05-05T07:56:41.076Z,100307.70
2023-05-05T07:57:44.701Z,100315.50
2023-05-05T07:58:47.531Z,100308.42
2023-05-05T07:59:50.416Z,100316.47
2023-05-05T08:00:52.800Z,100318.49
2023-05-05T08:01:56.609Z,100312.99
2023-05-05T08:02:58.988Z,100324.78
2023-05-05T08:04:02.090Z,100322.30
2023-05-05T08:05:05.883Z,100315.35
2023-05-05T08:06:10.073Z,100314.16
2023-05-05T08:07:12.700Z,100311.48
2023-05-05T08:08:15.715Z,100315.02
2023-05-05T08:09:18.640Z,100317.94
2023-05-05T08:10:23.952Z,100315.50
2023-05-05T08:11:27.181Z,100320.02
2023-05-05T08:12:30.586Z,100316.96
2023-05-05T08:13:33.131Z,100314.13
2023-05-05T08:14:36.020Z,100327.72
2023-05-05T08:15:38.711Z,100318.98
2023-05-05T08:16:41.213Z,100319.73
2023-05-05T08:17:46.984Z,100318.98
2023-05-05T08:18:49.101Z,100319.34
2023-05-05T08:19:54.596Z,100314.59
2023-05-05T08:20:57.375Z,100320.97
2023-05-05T08:22:01.482Z,100313.42
2023-05-05T08:23:05.247Z,100317.51
2023-05-05T08:24:07.528Z,100315.29
2023-05-05T08:25:13.222Z,100318.66
2023-05-05T08:26:15.965Z,100314.52
2023-05-05T08:27:18.211Z,100315.83
2023-05-05T08:28:20.916Z,100316.27
2023-05-05T08:29:23.629Z,100320.04
2023-05-05T08:30:26.551Z,100319.73
2023-05-05T08:31:36.245Z,100311.83
2023-05-05T08:32:39.778Z,100311.33
2023-05-05T08:33:42.905Z,100324.04
2023-05-05T08:34:45.399Z,100320.59
2023-05-05T08:35:49.985Z,100321.66
2023-05-05T08:36:53.458Z,100316.56
2023-05-05T08:39:04.328Z,100327.45
2023-05-05T08:41:25.656Z,100324.13
2023-05-05T08:42:38.112Z,100324.69
2023-05-05T08:43:36.485Z,100322.16
2023-05-05T08:44:39.153Z,100328.59
2023-05-05T08:45:41.765Z,100328.59
2023-05-05T08:46:44.487Z,100332.81
2023-05-05T08:47:47.480Z,100323.72
2023-05-05T08:48:53.431Z,100331.58
2023-05-05T08:49:58.480Z,100324.19
2023-05-05T08:51:05.785Z,100325.97
2023-05-05T08:52:10.989Z,100327.27
2023-05-05T08:53:17.442Z,100325.16
2023-05-05T08:54:21.865Z,100326.62
2023-05-05T08:55:26.136Z,100323.68
2023-05-05T08:56:39.192Z,100323.12
2023-05-05T08:57:47.929Z,100321.48
2023-05-05T08:58:51.701Z,100314.63
2023-05-05T08:59:57.412Z,100315.32
2023-05-05T09:01:01.530Z,100320.14
2023-05-05T09:02:05.352Z,100318.89
2023-05-05T09:03:08.134Z,100319.97
2023-05-05T09:04:10.728Z,100316.68
2023-05-05T09:05:13.153Z,100323.19
2023-05-05T09:06:16.843Z,100311.70
2023-05-05T09:07:19.372Z,100308.16
2023-05-05T09:08:22.537Z,100312.89
2023-05-05T09:09:25.925Z,100316.94
2023-05-05T09:10:29.127Z,100315.27
2023-05-05T09:11:34.860Z,100313.39
2023-05-05T09:12:41.927Z,100314.59
2023-05-05T09:13:44.174Z,100306.64
2023-05-05T09:14:47.597Z,100312.47
2023-05-05T09:15:50.712Z,100309.17
2023-05-05T09:16:53.717Z,100318.38
2023-05-05T09:18:00.887Z,100313.91
2023-05-05T09:19:05.474Z,100310.18
2023-05-05T09:20:13.268Z,100311.53
2023-05-05T09:21:22.093Z,100304.41
2023-05-05T09:22:42.061Z,100309.55
2023-05-05T09:23:48.328Z,100304.26
2023-05-05T09:24:55.305Z,100310.59
2023-05-05T09:26:05.447Z,100305.19
2023-05-05T09:27:11.245Z,100306.02
2023-05-05T09:28:16.060Z,100308.75
2023-05-05T09:29:22.081Z,100310.55
2023-05-05T09:30:30.127Z,100303.80
2023-05-05T09:31:34.235Z,100307.57
2023-05-05T09:32:50.666Z,100306.82
2023-05-05T09:33:53.019Z,100310.20
2023-05-05T09:35:00.534Z,100308.52
2023-05-05T09:36:04.229Z,100302.05
2023-05-05T09:37:06.585Z,100303.81
2023-05-05T09:38:12.107Z,100302.33
2023-05-05T09:39:17.391Z,100305.95
2023-05-05T09:40:20.929Z,100303.05
2023-05-05T09:41:41.475Z,100305.40
2023-05-05T09:42:44.273Z,100305.40
2023-05-05T09:43:52.872Z,100295.36
2023-05-05T09:44:59.108Z,100297.41
2023-05-05T09:46:08.038Z,100295.91
2023-05-05T09:47:26.068Z,100295.44
2023-05-05T09:48:28.158Z,100297.41
2023-05-05T09:49:30.658Z,100290.02
2023-05-05T09:50:43.800Z,100291.99
2023-05-05T09:51:47.269Z,100283.74
2023-05-05T09:53:00.534Z,100290.52
2023-05-05T09:54:03.165Z,100287.67
2023-05-05T09:55:08.124Z,100282.45
2023-05-05T09:56:11.510Z,100282.45
2023-05-05T09:57:28.591Z,100287.77
2023-05-05T09:58:31.094Z,100286.48
2023-05-05T09:59:33.718Z,100292.39
2023-05-05T10:00:39.199Z,100285.09
2023-05-05T10:01:43.807Z,100285.09
2023-05-05T10:02:46.809Z,100286.38
2023-05-05T10:03:52.026Z,100284.64
2023-05-05T10:05:13.296Z,100293.47
2023-05-05T10:06:16.153Z,100288.06
2023-05-05T10:07:24.047Z,100295.84
2023-05-05T10:08:30.036Z,100278.88
2023-05-05T10:09:32.121Z,100282.43
2023-05-05T10:10:35.965Z,100279.95
2023-05-05T10:11:41.813Z,100277.63
2023-05-05T10:12:47.014Z,100279.42
2023-05-05T10:13:49.516Z,100281.02
2023-05-05T10:14:54.397Z,100277.52
2023-05-05T10:15:59.109Z,100282.23
2023-05-05T10:17:02.593Z,100280.44
2023-05-05T10:18:08.098Z,100280.00
2023-05-05T10:19:13.728Z,100284.40
2023-05-05T10:20:18.484Z,100287.02
2023-05-05T10:21:21.767Z,100287.97
2023-05-05T10:22:26.208Z,100287.97
2023-05-05T10:23:38.577Z,100283.55
2023-05-05T10:24:48.886Z,100284.67
2023-05-05T10:26:02.010Z,100286.94
2023-05-05T10:27:13.647Z,100283.01
2023-05-05T10:28:22.312Z,100281.59
2023-05-05T10:29:50.382Z,100277.83
2023-05-05T10:30:56.485Z,100278.11
2023-05-05T10:32:21.434Z,100280.39
2023-05-05T10:33:31.124Z,100278.13
2023-05-05T10:34:26.464Z,100272.87
2023-05-05T10:35:33.277Z,100273.59
2023-05-05T10:36:38.901Z,100273.42
2023-05-05T10:37:41.143Z,100269.28
2023-05-05T10:38:46.617Z,100270.98
2023-05-05T10:39:55.086Z,100269.12
2023-05-05T10:42:12.291Z,100263.08
2023-05-05T10:43:15.705Z,100271.73
2023-05-05T10:44:19.072Z,100273.22
2023-05-05T10:45:21.365Z,100263.83
2023-05-05T10:46:26.294Z,100275.06
2023-05-05T10:47:31.002Z,100271.14
2023-05-05T10:48:39.799Z,100270.30
2023-05-05T10:50:00.761Z,100274.54
2023-05-05T10:51:13.212Z,100271.63
2023-05-05T10:52:38.721Z,100273.39
2023-05-05T10:53:45.109Z,100263.27
2023-05-05T10:54:51.017Z,100264.77
2023-05-05T10:55:59.832Z,100258.76
2023-05-05T10:57:04.495Z,100257.06
2023-05-05T10:58:06.841Z,100271.11
2023-05-05T10:59:39.054Z,100263.11
2023-05-05T11:00:45.282Z,100262.53
2023-05-05T11:01:49.513Z,100261.62
2023-05-05T11:02:54.151Z,100254.41
2023-05-05T11:04:17.465Z,100249.34
2023-05-05T11:05:22.778Z,100248.73
2023-05-05T11:06:25.403Z,100253.36
2023-05-05T11:07:27.942Z,100247.69
2023-05-05T11:08:31.766Z,100256.22
2023-05-05T11:09:36.907Z,100256.14
2023-05-05T11:10:45.389Z,100248.06
2023-05-05T11:12:06.759Z,100240.16
2023-05-05T11:13:12.712Z,100244.20
2023-05-05T11:14:24.527Z,100239.95
2023-05-05T11:15:34.233Z,100231.98
2023-05-05T11:16:46.556Z,100240.41
2023-05-05T11:17:49.756Z,100237.21
2023-05-05T11:18:52.122Z,100234.84
2023-05-05T11:19:54.246Z,100224.98
2023-05-05T11:21:03.100Z,100226.00
2023-05-05T11:22:06.265Z,100222.16
2023-05-05T11:23:13.457Z,100223.22
2023-05-05T11:24:22.905Z,100221.49
2023-05-05T11:25:41.141Z,100224.95
2023-05-05T11:26:51.120Z,100224.49
2023-05-05T11:28:13.239Z,100221.88
2023-05-05T11:29:16.620Z,100230.61
2023-05-05T11:30:19.098Z,100229.45
2023-05-05T11:31:22.019Z,100231.39
2023-05-05T11:32:24.457Z,100236.84
2023-05-05T11:33:32.978Z,100235.95
2023-05-05T11:34:35.688Z,100233.31
2023-05-05T11:37:08.995Z,100227.80
2023-05-05T11:38:14.329Z,100227.80
2023-05-05T11:39:20.219Z,100227.41
2023-05-05T11:40:26.158Z,100227.23
2023-05-05T11:41:34.878Z,100224.38
2023-05-05T11:42:37.322Z,100222.23
2023-05-05T11:43:43.264Z,100224.17
2023-05-05T11:44:45.859Z,100219.03
2023-05-05T11:45:48.742Z,100223.04
2023-05-05T11:46:55.022Z,100221.11
2023-05-05T11:48:27.997Z,100222.91
2023-05-05T11:49:38.380Z,100221.17
2023-05-05T11:50:41.816Z,100219.11
2023-05-05T11:51:46.164Z,100219.66
2023-05-05T11:52:49.311Z,100212.79
2023-05-05T11:53:52.525Z,100209.45
2023-05-05T11:54:59.458Z,100218.20
2023-05-05T11:56:10.536Z,100225.53
2023-05-05T11:57:14.045Z,100218.83
2023-05-05T11:58:21.508Z,100220.98
2023-05-05T11:59:24.991Z,100224.59
2023-05-05T12:00:33.510Z,100224.39
2023-05-05T12:01:40.913Z,100217.11
2023-05-05T12:02:43.221Z,100208.36
2023-05-05T12:03:46.205Z,100212.91
2023-05-05T12:04:50.841Z,100211.25
2023-05-05T12:05:56.135Z,100213.05
2023-05-05T12:06:59.418Z,100212.45
2023-05-05T12:08:01.763Z,100205.69
2023-05-05T12:09:05.851Z,100213.91
2023-05-05T12:10:10.599Z,100203.17
2023-05-05T12:11:12.915Z,100206.13
2023-05-05T12:12:16.176Z,100206.02
2023-05-05T12:13:20.300Z,100195.12
2023-05-05T12:14:26.422Z,100197.84
2023-05-05T12:15:32.198Z,100201.09
2023-05-05T12:16:35.319Z,100196.09
2023-05-05T12:17:40.241Z,100194.61
2023-05-05T12:18:42.673Z,100189.20
2023-05-05T12:19:47.387Z,100194.08
2023-05-05T12:20:51.175Z,100194.21
2023-05-05T12:21:53.705Z,100189.87
2023-05-05T12:23:03.321Z,100183.16
2023-05-05T12:24:06.711Z,100188.92
2023-05-05T12:25:10.006Z,100178.95
2023-05-05T12:26:28.938Z,100182.40
2023-05-05T12:27:31.389Z,100185.36
2023-05-05T12:28:47.361Z,100180.30
2023-05-05T12:29:51.225Z,100172.27
2023-05-05T12:30:58.358Z,100174.78